Gossett, Illinois
Current Conditions -  °F | °C
As of 3:35 PM on Sunday 21 Dec 2014 (Local Time) from KCUL Reporting Station
Clear Clear  
Wind Chill: 41°   Ceiling: Unl
Heat Index: 45°   Visibility: 10mi
Dew Point: 33°   Wind: 8mph
Humidity: 63%   Direction: 110°ESE
Pressure: 30.09"   Gusts: NA
Location:  37.9739°N, 88.3193°W
Report Text: KCUL 212135Z AUTO 11007KT 10SM CLR 07/01 A3009 RMK AO2 T00730006
Loading
Personal Weather Stations






























Interactive Weather Map New forecast layout! Learn more

10-Day Weather Forecast

Advertisements
Track Severe Weather on mobile